Time;durP1;ratioP1;P1;durP2;ratioP2;P2;SDS_P1;SDS_P2;PMS_P1;PMS_P2;Temp;Humidity;BMP_temperature;BMP_pressure;BME280_temperature;BME280_humidity;BME280_pressure;Samples;Min_cycle;Max_cycle;Signal;HPM_P1;HPM_P2
2022/08/19 00:02:12;;;;;;;14.50;13.00;;;23.10;73.20;;;;;;4972443;28;20030;-74
2022/08/19 00:04:37;;;;;;;16.35;14.55;;;23.00;73.40;;;;;;4955312;28;20058;-74
2022/08/19 00:07:05;;;;;;;18.15;14.50;;;23.00;73.70;;;;;;4972520;28;20022;-73
2022/08/19 00:09:31;;;;;;;15.23;13.60;;;;;;;;;;4955090;28;20405;-74
2022/08/19 00:11:58;;;;;;;17.23;15.40;;;;;;;;;;4972874;28;20053;-74
2022/08/19 00:14:25;;;;;;;19.20;16.55;;;;;;;;;;4972382;28;20033;-74
2022/08/19 00:16:53;;;;;;;24.50;15.40;;;;;;;;;;4972577;28;20034;-74
2022/08/19 00:19:20;;;;;;;14.55;13.05;;;;;;;;;;4972122;28;20026;-74
2022/08/19 00:21:46;;;;;;;17.30;15.60;;;;;;;;;;4972954;28;20035;-74
2022/08/19 00:24:14;;;;;;;17.40;15.70;;;;;;;;;;4972438;28;20050;-73
2022/08/19 00:26:40;;;;;;;16.92;15.18;;;;;;;;;;4972782;28;20443;-74
2022/08/19 00:29:08;;;;;;;18.75;16.25;;;22.70;75.30;;;;;;4954395;28;20512;-74
2022/08/19 00:31:34;;;;;;;17.80;16.00;;;22.70;75.50;;;;;;4955014;28;20038;-74
2022/08/19 00:34:00;;;;;;;14.65;13.18;;;22.70;75.40;;;;;;4972609;28;20027;-74
2022/08/19 00:36:25;;;;;;;17.55;15.65;;;22.90;74.90;;;;;;4972950;28;20018;-74
2022/08/19 00:38:52;;;;;;;22.25;15.63;;;22.90;74.90;;;;;;4976073;28;20034;-72
2022/08/19 00:41:21;;;;;;;19.15;15.77;;;23.00;74.50;;;;;;4976333;28;20027;-75
2022/08/19 00:44:14;;;;;;;17.02;15.23;;;23.00;74.50;;;;;;4976053;28;20019;-74
2022/08/19 00:46:43;;;;;;;18.45;15.82;;;22.90;74.90;;;;;;4947132;28;20382;-74
2022/08/19 00:49:16;;;;;;;16.83;14.95;;;22.80;75.40;;;;;;4975645;28;20425;-73
2022/08/19 00:51:45;;;;;;;18.52;16.55;;;22.80;75.20;;;;;;4976139;28;20477;-74
2022/08/19 00:54:11;;;;;;;16.77;14.95;;;22.90;75.00;;;;;;4975646;28;20385;-71
2022/08/19 00:56:37;;;;;;;17.67;15.75;;;22.80;75.60;;;;;;4975972;28;20023;-74
2022/08/19 00:59:08;;;;;;;17.77;13.88;;;22.80;76.30;;;;;;4957994;28;20074;-72
2022/08/19 01:01:38;;;;;;;18.30;16.00;;;22.90;75.80;;;;;;4976601;28;20027;-74
2022/08/19 01:04:04;;;;;;;18.17;16.35;;;22.90;75.80;;;;;;4958421;28;20086;-74
2022/08/19 01:06:32;;;;;;;19.83;16.65;;;22.90;76.00;;;;;;4976158;28;20022;-74
2022/08/19 01:08:59;;;;;;;18.50;16.55;;;22.80;76.30;;;;;;4975310;28;20031;-74
2022/08/19 01:11:26;;;;;;;19.00;16.15;;;22.80;76.30;;;;;;4975885;28;20069;-73
2022/08/19 01:13:53;;;;;;;17.48;14.07;;;22.80;76.00;;;;;;4975699;28;20018;-73
2022/08/19 01:16:22;;;;;;;16.60;15.10;;;22.90;75.90;;;;;;4975780;28;20021;-72
2022/08/19 01:18:48;;;;;;;18.35;16.00;;;22.90;75.90;;;;;;4975373;28;20050;-73
2022/08/19 01:21:26;;;;;;;19.10;15.30;;;22.80;76.40;;;;;;4975620;28;20098;-71
2022/08/19 01:23:52;;;;;;;16.70;15.02;;;22.80;76.40;;;;;;4975693;28;20027;-69
2022/08/19 01:26:23;;;;;;;17.55;15.75;;;22.80;76.30;;;;;;4974073;28;20386;-70
2022/08/19 01:28:51;;;;;;;16.33;14.23;;;22.90;76.10;;;;;;4974216;28;20464;-70
2022/08/19 01:31:21;;;;;;;15.50;13.90;;;23.00;75.80;;;;;;4974440;28;20026;-71
2022/08/19 01:33:48;;;;;;;16.58;14.77;;;23.10;75.20;;;;;;4975284;28;20497;-71
2022/08/19 01:36:22;;;;;;;17.90;15.32;;;23.10;75.20;;;;;;4974793;28;20019;-70
2022/08/19 01:38:48;;;;;;;16.48;14.77;;;23.20;75.10;;;;;;4974317;28;20038;-70
2022/08/19 01:41:14;;;;;;;16.42;14.82;;;23.20;75.30;;;;;;4975321;28;20015;-70
2022/08/19 01:43:40;;;;;;;18.23;14.75;;;23.10;75.30;;;;;;4975228;28;20034;-70
2022/08/19 01:46:06;;;;;;;14.82;13.35;;;23.10;75.50;;;;;;4975296;28;20042;-70
2022/08/19 01:48:38;;;;;;;15.95;14.38;;;23.00;75.60;;;;;;4974577;28;20046;-71
2022/08/19 01:51:04;;;;;;;15.05;13.52;;;23.10;75.50;;;;;;4974853;28;20049;-70
2022/08/19 01:53:30;;;;;;;15.70;14.27;;;23.20;75.30;;;;;;4957811;28;20023;-70
2022/08/19 01:55:56;;;;;;;19.20;15.27;;;23.20;75.20;;;;;;4957633;28;20074;-71
2022/08/19 01:58:29;;;;;;;17.10;15.50;;;23.20;75.30;;;;;;4974466;28;20508;-71
2022/08/19 02:00:54;;;;;;;16.73;14.20;;;23.20;75.30;;;;;;4974696;28;20299;-71
2022/08/19 02:03:20;;;;;;;15.68;14.15;;;23.20;75.50;;;;;;4975046;28;20033;-71
2022/08/19 02:05:46;;;;;;;16.20;14.55;;;23.20;75.70;;;;;;4957377;28;20552;-71
2022/08/19 02:08:12;;;;;;;17.48;15.60;;;23.20;75.40;;;;;;4975017;28;20027;-71
2022/08/19 02:10:43;;;;;;;17.25;15.43;;;23.20;75.60;;;;;;4974376;28;20401;-70
2022/08/19 02:13:10;;;;;;;16.15;14.55;;;23.20;75.70;;;;;;4974672;28;20509;-70
2022/08/19 02:15:36;;;;;;;16.58;14.73;;;23.20;75.40;;;;;;4974536;28;20035;-70
2022/08/19 02:18:01;;;;;;;17.88;14.82;;;23.30;75.30;;;;;;4975024;28;20385;-72
2022/08/19 02:20:27;;;;;;;17.80;14.85;;;23.20;75.80;;;;;;4974630;28;20027;-71
2022/08/19 02:22:52;;;;;;;17.67;13.73;;;23.20;75.80;;;;;;4974912;28;20511;-71
2022/08/19 02:25:18;;;;;;;15.45;13.88;;;23.20;75.90;;;;;;4974677;28;20027;-72
2022/08/19 02:27:44;;;;;;;17.85;14.55;;;23.00;76.30;;;;;;4974365;28;20035;-72
2022/08/19 02:30:13;;;;;;;15.15;13.57;;;23.10;76.10;;;;;;4974282;28;20058;-71
2022/08/19 02:32:39;;;;;;;16.50;14.90;;;23.20;75.80;;;;;;4974261;28;20030;-71
2022/08/19 02:35:05;;;;;;;16.88;14.77;;;23.20;76.10;;;;;;4974353;28;20389;-70
2022/08/19 02:40:17;;;;;;;54.97;39.10;;;23.00;76.50;;;;;;4974324;28;20037;-71
2022/08/19 02:42:43;;;;;;;20.13;16.48;;;23.00;76.70;;;;;;4974387;28;20026;-70
2022/08/19 02:45:09;;;;;;;15.45;13.95;;;23.00;76.90;;;;;;4974599;28;20110;-71
2022/08/19 02:47:35;;;;;;;17.50;15.60;;;22.90;77.00;;;;;;4974177;28;20113;-71
2022/08/19 02:50:01;;;;;;;17.35;15.55;;;22.90;77.10;;;;;;4974512;28;20031;-71
2022/08/19 02:52:28;;;;;;;16.05;14.50;;;23.00;77.00;;;;;;4974654;28;20023;-71
2022/08/19 02:54:55;;;;;;;18.70;14.43;;;22.90;77.40;;;;;;4956792;28;20118;-71
2022/08/19 02:57:21;;;;;;;16.60;14.90;;;22.90;77.30;;;;;;4973355;28;20027;-70
2022/08/19 02:59:46;;;;;;;22.75;19.98;;;22.90;77.20;;;;;;4936511;29;20182;-71
2022/08/19 03:02:12;;;;;;;120.00;75.93;;;22.90;77.10;;;;;;4969234;28;20026;-71
2022/08/19 03:04:37;;;;;;;67.95;46.95;;;23.00;76.90;;;;;;4974116;28;20033;-71
2022/08/19 03:07:03;;;;;;;30.13;22.27;;;23.00;77.00;;;;;;4973838;28;20035;-70
2022/08/19 03:09:29;;;;;;;26.15;19.85;;;23.00;76.90;;;;;;4956296;28;20515;-70
2022/08/19 03:11:55;;;;;;;31.83;22.45;;;23.10;76.60;;;;;;4973767;28;20019;-71
2022/08/19 03:14:22;;;;;;;20.40;18.23;;;23.00;76.80;;;;;;4973452;28;20207;-71
2022/08/19 03:16:52;;;;;;;27.38;20.23;;;23.00;76.80;;;;;;4973663;28;20559;-71
2022/08/19 03:19:20;;;;;;;18.27;16.35;;;23.00;76.80;;;;;;4972957;28;20417;-71
2022/08/19 03:21:46;;;;;;;16.88;15.10;;;23.00;76.90;;;;;;4973362;28;20026;-72
2022/08/19 03:24:13;;;;;;;20.02;16.50;;;23.00;77.00;;;;;;4973266;28;20481;-70
2022/08/19 03:26:42;;;;;;;19.35;17.27;;;23.00;77.10;;;;;;4973334;28;20041;-71
2022/08/19 03:29:09;;;;;;;18.98;16.55;;;22.90;77.50;;;;;;4988763;23;20106;-68
2022/08/19 03:31:35;;;;;;;18.60;16.80;;;22.90;77.50;;;;;;4991562;28;20066;-68
2022/08/19 03:34:01;;;;;;;17.65;15.98;;;22.90;77.20;;;;;;4992239;28;20093;-68
2022/08/19 03:36:27;;;;;;;18.55;16.30;;;22.90;77.30;;;;;;4992502;28;20077;-69
2022/08/19 03:38:56;;;;;;;19.50;17.60;;;23.00;77.40;;;;;;4991844;28;20029;-68
2022/08/19 03:41:25;;;;;;;18.90;16.92;;;22.90;77.40;;;;;;4992716;28;20018;-70
2022/08/19 03:43:52;;;;;;;17.73;16.00;;;22.90;77.50;;;;;;4992356;28;20105;-68
2022/08/19 03:46:24;;;;;;;19.33;15.85;;;22.90;77.60;;;;;;4991220;28;20027;-68
2022/08/19 03:48:53;;;;;;;;;;;22.80;77.90;;;;;;4992605;28;20018;-68
2022/08/19 03:51:30;;;;;;;18.27;15.50;;;22.80;77.80;;;;;;4992538;28;19906;-68
2022/08/19 03:53:58;;;;;;;17.55;15.75;;;22.80;77.90;;;;;;4990945;28;20076;-69
2022/08/19 03:56:25;;;;;;;18.60;15.68;;;22.80;77.90;;;;;;4992519;28;20030;-69
2022/08/19 03:58:52;;;;;;;18.95;17.02;;;22.80;77.80;;;;;;4991889;28;20022;-69
2022/08/19 04:01:22;;;;;;;18.58;16.58;;;22.80;77.90;;;;;;4992461;28;20035;-69
2022/08/19 04:03:48;;;;;;;21.20;17.02;;;22.70;78.00;;;;;;4991993;28;20098;-68
2022/08/19 04:06:14;;;;;;;18.30;16.40;;;22.70;77.90;;;;;;4992339;28;20034;-69
2022/08/19 04:08:42;;;;;;;19.15;16.95;;;22.80;77.90;;;;;;4992496;28;20018;-68
2022/08/19 04:11:10;;;;;;;19.25;16.42;;;22.70;78.00;;;;;;4992257;28;20085;-68
2022/08/19 04:13:36;;;;;;;21.55;18.23;;;22.70;77.80;;;;;;4991017;28;20022;-68
2022/08/19 04:16:01;;;;;;;19.13;17.25;;;22.80;77.60;;;;;;4991778;28;20018;-69
2022/08/19 04:18:29;;;;;;;20.23;17.48;;;22.80;77.50;;;;;;4991706;28;20381;-68
2022/08/19 04:20:55;;;;;;;20.00;17.85;;;22.80;77.60;;;;;;4990366;28;20033;-69
2022/08/19 04:23:21;;;;;;;17.92;16.13;;;22.90;77.50;;;;;;4991985;28;20105;-69
2022/08/19 04:25:46;;;;;;;19.00;17.10;;;22.80;77.50;;;;;;4991899;28;20023;-69
2022/08/19 04:28:12;;;;;;;20.08;17.98;;;22.80;77.70;;;;;;4991724;28;20034;-69
2022/08/19 04:30:47;;;;;;;19.42;17.63;;;22.80;77.80;;;;;;4991577;28;20034;-69
2022/08/19 04:33:15;;;;;;;20.88;18.58;;;22.70;78.30;;;;;;4991947;28;20030;-68
2022/08/19 04:35:44;;;;;;;18.23;16.40;;;22.70;78.10;;;;;;4991773;28;20497;-68
2022/08/19 04:38:10;;;;;;;19.67;17.65;;;22.70;77.90;;;;;;4991141;28;20031;-67
2022/08/19 04:43:29;;;;;;;18.85;16.42;;;22.80;77.80;;;;;;4992354;28;20033;-68
2022/08/19 04:45:55;;;;;;;17.50;15.75;;;22.70;77.90;;;;;;4991397;28;20018;-69
2022/08/19 04:48:25;;;;;;;20.88;18.55;;;22.70;78.00;;;;;;4990116;28;20033;-69
2022/08/19 04:50:59;;;;;;;19.52;17.63;;;22.70;78.10;;;;;;4991575;28;20073;-69
2022/08/19 04:53:28;;;;;;;19.77;17.67;;;22.70;78.00;;;;;;4991793;28;20640;-69
2022/08/19 04:56:06;;;;;;;19.17;16.92;;;22.70;78.00;;;;;;4990120;28;20538;-69
2022/08/19 04:58:35;;;;;;;19.75;15.95;;;22.70;78.00;;;;;;4991428;28;20390;-69
2022/08/19 05:01:01;;;;;;;21.38;18.00;;;22.70;78.00;;;;;;4991280;28;20396;-69
2022/08/19 05:03:27;;;;;;;18.50;16.35;;;22.70;77.80;;;;;;4991679;28;20026;-72
2022/08/19 05:05:53;;;;;;;19.33;17.42;;;22.70;77.80;;;;;;4990271;28;20117;-72
2022/08/19 05:08:21;;;;;;;22.23;19.80;;;22.70;78.00;;;;;;4990150;28;20181;-72
2022/08/19 05:10:49;;;;;;;19.63;17.33;;;22.50;78.50;;;;;;4991305;28;20050;-72
2022/08/19 05:13:16;;;;;;;21.48;18.30;;;22.50;78.80;;;;;;4991513;28;20502;-71
2022/08/19 05:15:43;;;;;;;23.58;19.77;;;22.40;79.10;;;;;;4991235;28;20031;-71
2022/08/19 05:23:37;;;;;;;21.30;19.10;;;22.40;79.40;;;;;;4989674;28;20037;-71
2022/08/19 05:26:03;;;;;;;22.30;18.33;;;22.40;79.30;;;;;;4999268;28;20038;-71
2022/08/19 05:28:29;;;;;;;22.20;17.67;;;22.40;79.40;;;;;;5002726;28;20030;-73
2022/08/19 05:30:55;;;;;;;20.05;17.75;;;22.40;79.40;;;;;;4991794;28;20037;-73
2022/08/19 05:33:21;;;;;;;24.13;19.25;;;22.40;79.40;;;;;;4992090;28;20092;-71
2022/08/19 05:35:49;;;;;;;25.05;20.50;;;22.30;79.40;;;;;;4993028;28;20030;-72
2022/08/19 05:38:15;;;;;;;24.45;20.40;;;22.30;79.40;;;;;;4992640;28;20481;-72
2022/08/19 05:40:43;;;;;;;21.80;19.17;;;22.30;79.60;;;;;;4991818;28;20165;-74
2022/08/19 05:43:09;;;;;;;20.88;18.77;;;22.30;79.60;;;;;;4995253;28;20011;-72
2022/08/19 05:45:40;;;;;;;22.52;19.75;;;22.30;79.60;;;;;;4996155;28;20033;-73
2022/08/19 05:48:05;;;;;;;20.83;18.67;;;22.20;79.70;;;;;;4985757;28;20058;-74
2022/08/19 05:50:31;;;;;;;21.75;19.15;;;22.20;79.80;;;;;;4992416;28;20035;-72
2022/08/19 05:52:57;;;;;;;21.42;19.10;;;22.20;79.90;;;;;;4994673;28;20069;-72
2022/08/19 05:55:23;;;;;;;20.58;17.67;;;22.10;80.10;;;;;;4994525;28;20500;-71
2022/08/19 05:57:49;;;;;;;20.38;18.25;;;22.20;80.00;;;;;;4991965;28;20030;-73
2022/08/19 06:00:15;;;;;;;19.45;17.55;;;22.10;79.80;;;;;;4993593;28;20512;-74
2022/08/19 06:02:40;;;;;;;19.10;16.23;;;22.10;79.90;;;;;;4992873;28;20015;-74
2022/08/19 06:05:08;;;;;;;18.08;16.17;;;22.10;79.80;;;;;;4993912;28;20049;-73
2022/08/19 06:07:35;;;;;;;17.70;15.95;;;22.20;79.80;;;;;;4993732;28;20471;-72
2022/08/19 06:10:01;;;;;;;16.58;14.95;;;22.10;80.10;;;;;;4994182;28;20034;-72
2022/08/19 06:12:33;;;;;;;19.42;15.65;;;22.10;80.30;;;;;;4993906;28;20103;-72
2022/08/19 06:15:02;;;;;;;19.55;15.75;;;22.10;80.10;;;;;;4994266;28;20105;-73
2022/08/19 06:17:29;;;;;;;17.52;14.65;;;22.20;79.80;;;;;;4993665;28;20519;-72
2022/08/19 06:19:55;;;;;;;16.05;13.88;;;22.20;79.60;;;;;;4994392;28;20090;-73
2022/08/19 06:22:21;;;;;;;15.90;13.02;;;22.20;79.30;;;;;;4994279;28;20459;-73
2022/08/19 06:24:46;;;;;;;13.43;11.80;;;22.20;79.20;;;;;;4993851;28;20393;-72
2022/08/19 06:27:12;;;;;;;11.85;10.63;;;22.20;79.00;;;;;;4993339;28;20030;-73
2022/08/19 06:29:38;;;;;;;13.45;12.02;;;22.30;79.00;;;;;;4993377;28;20531;-72
2022/08/19 06:32:03;;;;;;;22.60;11.70;;;22.30;78.90;;;;;;4993894;28;20399;-72
2022/08/19 06:34:32;;;;;;;12.80;11.50;;;22.30;78.70;;;;;;4993658;28;20025;-73
2022/08/19 06:37:03;;;;;;;13.90;10.65;;;22.30;78.70;;;;;;4992517;28;20117;-72
2022/08/19 06:39:37;;;;;;;12.90;11.15;;;22.20;78.90;;;;;;4993416;28;20018;-73
2022/08/19 06:42:06;;;;;;;15.40;11.90;;;22.20;79.00;;;;;;4993730;28;20065;-73
2022/08/19 06:44:36;;;;;;;12.32;10.27;;;22.30;79.20;;;;;;4992807;28;20030;-71
2022/08/19 06:47:06;;;;;;;18.23;16.42;;;22.30;78.90;;;;;;4997400;28;20027;-71
2022/08/19 06:49:32;;;;;;;21.73;15.67;;;22.30;79.10;;;;;;4984559;28;20477;-71
2022/08/19 06:51:59;;;;;;;16.52;13.38;;;22.30;78.80;;;;;;4991858;28;20037;-72
2022/08/19 06:54:25;;;;;;;19.42;13.82;;;22.40;78.80;;;;;;4992202;28;20019;-71
2022/08/19 06:56:51;;;;;;;15.50;13.60;;;22.40;78.70;;;;;;4993225;28;20050;-71
2022/08/19 06:59:21;;;;;;;32.35;13.68;;;22.40;78.90;;;;;;4992679;28;20041;-70
2022/08/19 07:01:51;;;;;;;28.48;16.02;;;22.50;78.90;;;;;;4991105;28;20496;-71
2022/08/19 07:04:23;;;;;;;24.75;14.48;;;22.40;79.30;;;;;;4980651;28;20439;-71
2022/08/19 07:06:49;;;;;;;29.70;12.57;;;22.40;79.40;;;;;;4991885;28;20028;-71
2022/08/19 07:09:17;;;;;;;30.65;16.23;;;22.40;80.00;;;;;;4991315;28;20118;-71
2022/08/19 07:11:45;;;;;;;34.83;15.75;;;22.40;79.90;;;;;;4992977;28;20022;-71
2022/08/19 07:14:12;;;;;;;29.88;15.18;;;22.30;80.10;;;;;;4985561;28;20085;-71
2022/08/19 07:16:37;;;;;;;23.27;14.57;;;22.40;80.50;;;;;;4995283;28;20101;-73
2022/08/19 07:19:03;;;;;;;19.58;14.23;;;22.40;80.70;;;;;;4999276;28;20058;-71
2022/08/19 07:21:29;;;;;;;15.80;13.45;;;22.40;81.00;;;;;;4991489;28;20097;-72
2022/08/19 07:23:56;;;;;;;16.38;14.48;;;22.40;81.00;;;;;;4992597;28;20154;-73
2022/08/19 07:26:28;;;;;;;19.17;14.35;;;22.40;81.60;;;;;;4995588;28;20105;-74
2022/08/19 07:28:55;;;;;;;32.95;14.90;;;22.40;81.50;;;;;;4993849;28;20529;-72
2022/08/19 07:31:24;;;;;;;29.55;15.38;;;22.30;81.40;;;;;;4991607;28;20042;-72
2022/08/19 07:33:52;;;;;;;21.65;15.10;;;22.20;82.30;;;;;;4993458;28;20018;-73
2022/08/19 07:36:22;;;;;;;17.48;14.75;;;22.20;82.10;;;;;;4996182;28;20014;-73
2022/08/19 07:38:50;;;;;;;22.55;15.65;;;22.10;82.10;;;;;;4992923;28;20228;-72
2022/08/19 07:41:21;;;;;;;19.35;15.35;;;22.30;82.20;;;;;;4996395;28;20022;-72
2022/08/19 07:43:47;;;;;;;20.17;15.40;;;22.20;82.30;;;;;;4993359;28;20027;-73
2022/08/19 07:46:13;;;;;;;22.70;16.27;;;22.10;83.30;;;;;;4990158;28;20125;-73
2022/08/19 07:48:41;;;;;;;22.92;16.02;;;22.00;83.40;;;;;;4989142;28;20033;-72
2022/08/19 07:51:08;;;;;;;20.63;15.32;;;22.00;83.40;;;;;;4990536;28;20037;-71
2022/08/19 07:53:35;;;;;;;22.25;15.32;;;21.90;84.10;;;;;;4991770;28;20358;-72
2022/08/19 07:56:02;;;;;;;31.35;16.33;;;22.00;84.60;;;;;;4990862;28;20063;-75
2022/08/19 07:58:28;;;;;;;22.92;16.50;;;22.00;84.50;;;;;;4989833;28;20512;-73
2022/08/19 08:00:54;;;;;;;32.45;16.85;;;22.00;84.60;;;;;;4985181;28;20424;-74
2022/08/19 08:09:10;;;;;;;20.42;15.88;;;22.10;83.90;;;;;;4991630;28;20026;-73
2022/08/19 08:09:10;;;;;;;19.92;16.00;;;22.20;83.40;;;;;;4986845;28;20033;-73
2022/08/19 08:11:41;;;;;;;43.33;34.78;;;22.30;83.20;;;;;;4992443;28;20397;-73
2022/08/19 08:14:08;;;;;;;38.80;31.13;;;22.30;83.30;;;;;;4991758;28;20031;-73
2022/08/19 08:16:36;;;;;;;20.55;14.68;;;22.50;82.40;;;;;;4991728;28;20030;-74
2022/08/19 08:19:05;;;;;;;24.15;19.10;;;22.40;82.30;;;;;;4990116;28;20018;-74
2022/08/19 08:21:31;;;;;;;16.45;14.35;;;22.50;82.20;;;;;;4991671;28;20033;-74
2022/08/19 08:23:57;;;;;;;29.80;17.80;;;22.50;82.00;;;;;;4991341;28;20416;-73
2022/08/19 08:26:24;;;;;;;17.40;14.70;;;22.60;81.60;;;;;;4990285;28;20270;-75
2022/08/19 08:28:51;;;;;;;22.80;14.98;;;22.70;81.50;;;;;;4989241;28;20069;-72
2022/08/19 08:31:18;;;;;;;16.38;13.40;;;22.70;80.80;;;;;;4989178;28;20433;-72
2022/08/19 08:33:44;;;;;;;20.33;13.57;;;22.80;81.10;;;;;;4989988;28;20539;-72
2022/08/19 08:36:11;;;;;;;22.00;14.48;;;22.90;80.90;;;;;;4987892;28;20388;-73
2022/08/19 08:38:37;;;;;;;15.65;13.40;;;22.90;80.70;;;;;;4984094;28;20022;-73
2022/08/19 08:41:21;;;;;;;18.02;14.07;;;22.80;80.70;;;;;;4991109;28;20471;-74
2022/08/19 08:43:50;;;;;;;15.23;13.77;;;22.80;80.70;;;;;;4991278;28;20037;-72
2022/08/19 08:46:22;;;;;;;14.57;12.82;;;22.80;80.70;;;;;;4987709;28;20042;-70
2022/08/19 08:48:53;;;;;;;15.43;13.80;;;22.70;81.00;;;;;;4979262;28;20110;-71
2022/08/19 08:51:23;;;;;;;;;;;22.70;81.80;;;;;;4990067;28;20448;-73
2022/08/19 08:53:51;;;;;;;14.88;13.15;;;22.60;82.50;;;;;;4989126;28;20455;-73
2022/08/19 08:56:16;;;;;;;14.55;12.45;;;22.60;82.50;;;;;;4988730;28;20049;-72
2022/08/19 08:58:59;;;;;;;13.95;11.65;;;22.60;82.00;;;;;;4991979;28;20050;-69
2022/08/19 09:01:25;;;;;;;12.98;11.75;;;22.90;81.20;;;;;;4982482;28;20019;-70
2022/08/19 09:03:51;;;;;;;11.38;10.27;;;23.10;79.90;;;;;;4994395;28;20023;-72
2022/08/19 09:06:38;;;;;;;12.57;10.15;;;23.50;79.50;;;;;;4993776;28;20022;-73
2022/08/19 09:09:03;;;;;;;10.05;8.40;;;24.00;77.70;;;;;;4994901;28;20488;-77
2022/08/19 09:11:44;;;;;;;10.18;9.25;;;24.40;74.90;;;;;;4996060;28;20019;-76
2022/08/19 09:14:25;;;;;;;12.55;9.32;;;24.50;74.20;;;;;;4994914;28;20521;-75
2022/08/19 09:16:51;;;;;;;11.23;8.97;;;24.70;74.10;;;;;;4987453;28;20109;-76
2022/08/19 09:19:17;;;;;;;10.68;9.68;;;25.20;73.10;;;;;;4994994;28;20270;-74
2022/08/19 09:21:43;;;;;;;10.38;9.38;;;25.50;70.50;;;;;;4994848;28;20023;-74
2022/08/19 09:24:09;;;;;;;10.57;9.48;;;25.70;70.40;;;;;;4994459;28;20492;-74
2022/08/19 09:26:34;;;;;;;10.30;8.85;;;25.80;69.20;;;;;;5003868;28;20014;-76
2022/08/19 09:29:01;;;;;;;11.68;9.38;;;26.10;68.20;;;;;;4992543;28;20077;-75
2022/08/19 09:31:29;;;;;;;10.77;9.65;;;26.20;67.90;;;;;;5034171;22;20073;-75
2022/08/19 09:33:58;;;;;;;10.63;9.52;;;26.30;66.60;;;;;;5030833;28;20030;-75
2022/08/19 09:36:26;;;;;;;10.32;9.23;;;26.30;66.60;;;;;;5021978;28;20030;-76
2022/08/19 09:38:52;;;;;;;10.63;9.68;;;26.40;66.30;;;;;;5010538;28;20560;-76
2022/08/19 09:41:20;;;;;;;10.48;9.20;;;26.50;65.20;;;;;;5012671;28;20029;-74
2022/08/19 09:43:48;;;;;;;11.25;10.05;;;26.20;66.20;;;;;;5012000;28;20018;-75
2022/08/19 09:46:16;;;;;;;11.02;10.02;;;26.10;66.40;;;;;;5012304;28;20113;-75
2022/08/19 09:48:44;;;;;;;11.68;10.10;;;25.90;67.10;;;;;;5013767;28;20099;-75
2022/08/19 09:51:15;;;;;;;11.13;10.02;;;25.70;67.90;;;;;;5018340;28;20029;-73
2022/08/19 09:53:45;;;;;;;12.43;11.32;;;25.70;67.80;;;;;;5019726;28;20026;-74
2022/08/19 09:56:12;;;;;;;12.27;11.07;;;25.60;67.80;;;;;;5015926;28;20022;-75
2022/08/19 09:58:39;;;;;;;12.10;11.00;;;25.70;67.70;;;;;;5019497;28;20014;-75
2022/08/19 10:01:06;;;;;;;11.60;10.50;;;25.90;67.40;;;;;;5018176;28;20064;-74
2022/08/19 10:03:33;;;;;;;15.02;10.90;;;26.00;67.20;;;;;;5020406;28;20033;-75
2022/08/19 10:06:04;;;;;;;11.63;10.35;;;26.20;66.20;;;;;;5016115;28;20112;-74
2022/08/19 10:08:33;;;;;;;;;;;26.30;66.10;;;;;;5014024;28;20065;-75
2022/08/19 10:10:59;;;;;;;10.35;9.35;;;26.30;65.70;;;;;;5013365;28;19949;-74
2022/08/19 10:13:29;;;;;;;9.98;8.98;;;26.30;65.70;;;;;;5014113;28;20029;-74
2022/08/19 10:16:02;;;;;;;9.75;8.63;;;26.40;65.40;;;;;;5013509;28;20022;-75
2022/08/19 10:18:27;;;;;;;9.85;8.10;;;26.30;65.50;;;;;;5013787;28;20026;-74
2022/08/19 10:21:09;;;;;;;9.10;8.30;;;26.30;65.20;;;;;;5013568;28;20025;-74
2022/08/19 10:23:38;;;;;;;10.15;8.05;;;26.40;65.30;;;;;;5013578;28;20389;-75
2022/08/19 10:26:05;;;;;;;8.00;7.20;;;26.80;64.00;;;;;;5011862;28;20018;-74
2022/08/19 10:28:38;;;;;;;9.13;7.53;;;27.00;63.10;;;;;;5015737;28;20037;-75
2022/08/19 10:31:06;;;;;;;9.95;7.80;;;27.40;62.40;;;;;;5013836;28;20033;-75
2022/08/19 10:33:32;;;;;;;10.27;7.25;;;27.80;60.80;;;;;;5013610;28;20040;-76
2022/08/19 10:36:07;;;;;;;9.90;6.53;;;28.10;59.40;;;;;;5013443;28;20483;-76
2022/08/19 10:38:33;;;;;;;6.55;5.95;;;28.20;58.30;;;;;;5013092;28;20025;-75
2022/08/19 10:41:11;;;;;;;10.70;6.00;;;27.90;59.40;;;;;;5013095;28;20033;-74
2022/08/19 10:43:38;;;;;;;6.90;5.50;;;27.60;60.20;;;;;;5013316;28;20033;-75
2022/08/19 10:46:05;;;;;;;7.07;5.55;;;27.10;61.90;;;;;;5013178;28;20091;-75
2022/08/19 10:48:32;;;;;;;5.25;4.82;;;26.50;64.20;;;;;;5013073;28;20030;-75
2022/08/19 10:54:03;;;;;;;5.93;5.32;;;26.60;63.70;;;;;;4951811;28;20541;-75
2022/08/19 10:59:14;;;;;;;5.60;5.10;;;27.30;61.90;;;;;;4987773;28;20036;-75
2022/08/19 11:01:41;;;;;;;4.57;4.18;;;27.70;60.50;;;;;;5013414;28;20384;-74
2022/08/19 11:04:09;;;;;;;5.25;4.30;;;27.70;60.40;;;;;;5012714;28;20248;-73
2022/08/19 11:06:36;;;;;;;4.90;4.40;;;28.00;59.60;;;;;;5022683;28;20045;-75
2022/08/19 11:09:02;;;;;;;5.30;4.80;;;27.80;59.90;;;;;;5016483;28;20022;-74
2022/08/19 11:11:28;;;;;;;4.97;4.57;;;27.60;60.10;;;;;;5013075;28;20477;-75
2022/08/19 11:13:54;;;;;;;4.05;3.75;;;27.30;61.10;;;;;;5011295;28;20137;-75
2022/08/19 11:16:24;;;;;;;4.97;4.50;;;26.90;61.50;;;;;;5012848;28;20022;-76
2022/08/19 11:18:58;;;;;;;5.07;4.30;;;26.70;61.90;;;;;;5011055;28;20028;-75
2022/08/19 11:21:23;;;;;;;6.80;5.30;;;26.80;62.30;;;;;;5010481;28;20022;-75
2022/08/19 11:23:52;;;;;;;5.53;5.13;;;26.90;61.80;;;;;;5010928;28;20077;-75
2022/08/19 11:26:20;;;;;;;7.55;6.85;;;26.90;62.00;;;;;;5012790;28;20404;-75
2022/08/19 11:28:46;;;;;;;6.25;5.65;;;26.90;61.60;;;;;;5015981;28;20029;-74
2022/08/19 11:31:18;;;;;;;5.57;5.18;;;26.40;63.20;;;;;;5012298;28;20089;-74
2022/08/19 11:33:45;;;;;;;6.43;5.82;;;26.10;64.40;;;;;;5012403;28;20049;-76
2022/08/19 11:36:11;;;;;;;6.80;6.18;;;26.00;65.00;;;;;;5012219;28;20480;-75
2022/08/19 11:38:37;;;;;;;8.73;7.93;;;26.00;65.30;;;;;;5012450;28;20333;-75
2022/08/19 11:41:07;;;;;;;9.52;7.50;;;26.00;65.10;;;;;;5012082;28;20224;-74
2022/08/19 11:43:33;;;;;;;9.02;8.23;;;26.00;65.30;;;;;;5012310;28;20053;-75
2022/08/19 11:46:00;;;;;;;9.55;8.65;;;26.00;65.50;;;;;;5011938;28;20021;-76
2022/08/19 11:48:26;;;;;;;10.90;9.80;;;26.10;65.10;;;;;;5011635;28;20109;-75
2022/08/19 11:50:55;;;;;;;11.23;10.05;;;26.10;64.70;;;;;;5011593;28;20151;-75
2022/08/19 11:53:21;;;;;;;11.38;10.27;;;26.20;64.20;;;;;;5011908;28;20025;-74
2022/08/19 11:55:47;;;;;;;10.90;9.88;;;26.20;64.40;;;;;;5012192;28;20016;-74
2022/08/19 11:58:15;;;;;;;11.57;10.38;;;26.10;64.70;;;;;;5011524;28;20045;-75
2022/08/19 12:00:41;;;;;;;11.32;10.05;;;26.00;65.40;;;;;;5011770;28;20034;-76
2022/08/19 12:03:08;;;;;;;11.43;10.15;;;25.70;66.20;;;;;;5011746;28;20029;-75
2022/08/19 12:05:36;;;;;;;12.93;9.90;;;25.50;66.60;;;;;;5011947;28;20488;-76
2022/08/19 12:08:02;;;;;;;11.20;10.10;;;25.40;67.20;;;;;;5011442;28;20054;-75
2022/08/19 12:10:27;;;;;;;11.20;9.95;;;25.40;67.30;;;;;;5011220;28;20065;-76
2022/08/19 12:12:53;;;;;;;13.05;11.52;;;25.50;67.10;;;;;;5011479;28;20029;-75
2022/08/19 12:15:18;;;;;;;13.35;12.15;;;25.40;67.10;;;;;;5010025;28;20022;-74
2022/08/19 12:17:44;;;;;;;16.63;12.75;;;25.40;67.50;;;;;;5011368;28;20030;-75
2022/08/19 12:20:13;;;;;;;13.73;12.35;;;25.20;67.40;;;;;;5011543;28;20388;-75
2022/08/19 12:22:40;;;;;;;14.18;12.80;;;25.10;67.70;;;;;;5011467;28;20022;-76
2022/08/19 12:25:08;;;;;;;23.00;18.92;;;25.10;67.70;;;;;;5011601;28;20064;-76
2022/08/19 12:27:35;;;;;;;15.48;13.98;;;25.00;68.10;;;;;;5010006;28;20033;-75
2022/08/19 12:30:02;;;;;;;13.70;12.40;;;25.10;68.10;;;;;;5015576;28;20038;-74
2022/08/19 12:32:28;;;;;;;15.00;13.60;;;25.20;67.90;;;;;;5015184;28;20045;-75
2022/08/19 12:34:54;;;;;;;33.00;23.00;;;25.40;67.40;;;;;;5018049;28;20472;-75
2022/08/19 12:37:20;;;;;;;107.53;62.20;;;25.50;67.10;;;;;;5016347;28;20025;-76
2022/08/19 12:39:46;;;;;;;48.17;33.42;;;25.80;66.30;;;;;;5016696;28;20022;-75
2022/08/19 12:42:13;;;;;;;127.32;76.10;;;26.00;65.50;;;;;;5018112;28;20030;-76
2022/08/19 12:44:43;;;;;;;47.15;33.30;;;26.00;65.40;;;;;;5016558;28;20128;-74
2022/08/19 12:47:10;;;;;;;101.40;59.90;;;25.80;65.60;;;;;;5015907;28;20022;-75
2022/08/19 12:49:38;;;;;;;41.10;28.45;;;25.70;65.60;;;;;;5016764;28;20036;-75
2022/08/19 12:52:08;;;;;;;18.80;16.85;;;25.50;66.20;;;;;;5017821;28;20395;-75
2022/08/19 12:54:37;;;;;;;20.50;15.52;;;25.70;65.60;;;;;;5017248;28;20030;-77
2022/08/19 12:57:10;;;;;;;17.83;15.93;;;25.80;65.30;;;;;;5017915;28;20041;-75